Time;durP1;ratioP1;P1;durP2;ratioP2;P2;SDS_P1;SDS_P2;PMS_P1;PMS_P2;Temp;Humidity;BMP_temperature;BMP_pressure;BME280_temperature;BME280_humidity;BME280_pressure;Samples;Min_cycle;Max_cycle;Signal;HPM_P1;HPM_P2
2022/07/02 00:02:43;;;;;;;2.38;0.77;;;;;;;13.13;78.44;101327.38;5111011;28;20050;-73
2022/07/02 00:06:00;;;;;;;3.50;0.75;;;;;;;13.43;77.14;101330.25;5112011;28;20507;-73
2022/07/02 00:09:04;;;;;;;2.33;0.90;;;;;;;13.54;75.84;101337.59;5111290;28;20043;-74
2022/07/02 00:12:10;;;;;;;2.88;0.75;;;;;;;13.29;76.96;101338.84;5112448;28;20046;-73
2022/07/02 00:15:15;;;;;;;4.93;1.05;;;;;;;13.27;77.26;101343.31;5111036;28;20045;-73
2022/07/02 00:18:19;;;;;;;2.45;0.95;;;;;;;13.18;77.46;101339.38;5112291;28;20051;-73
2022/07/02 00:21:23;;;;;;;5.75;1.00;;;;;;;13.14;77.26;101340.41;5111263;28;20707;-74
2022/07/02 00:24:26;;;;;;;6.00;1.20;;;;;;;13.04;77.43;101345.28;5111231;28;20047;-73
2022/07/02 00:27:30;;;;;;;3.90;0.70;;;;;;;13.17;76.82;101340.28;5110487;28;20458;-73
2022/07/02 00:30:33;;;;;;;3.53;0.80;;;;;;;13.29;76.28;101346.72;5089784;28;20097;-73
2022/07/02 00:33:37;;;;;;;2.63;1.20;;;;;;;13.08;77.06;101346.00;5091590;28;20051;-73
2022/07/02 00:36:43;;;;;;;3.33;0.90;;;;;;;13.24;75.84;101344.34;5091037;28;20093;-73
2022/07/02 00:39:46;;;;;;;5.28;1.70;;;;;;;13.05;76.79;101346.16;5090702;28;20614;-74
2022/07/02 00:42:51;;;;;;;3.03;1.10;;;;;;;12.85;77.60;101349.75;5090429;28;20169;-73
2022/07/02 00:45:57;;;;;;;2.40;0.75;;;;;;;13.01;76.85;101345.44;5090737;28;20135;-73
2022/07/02 00:49:00;;;;;;;4.10;1.42;;;;;;;12.69;78.35;101352.25;5090875;28;20035;-73
2022/07/02 00:52:05;;;;;;;3.38;1.00;;;;;;;12.69;78.40;101348.78;5090570;28;20093;-74
2022/07/02 00:55:09;;;;;;;2.47;0.80;;;;;;;12.81;77.75;101353.44;5090961;28;20562;-74
2022/07/02 00:58:13;;;;;;;3.90;0.85;;;;;;;13.00;76.30;101345.53;5096212;28;20082;-73
2022/07/02 01:01:16;;;;;;;3.67;0.70;;;;;;;12.95;76.54;101348.34;5111038;28;20035;-73
2022/07/02 01:04:20;;;;;;;3.38;0.93;;;;;;;12.70;77.12;101359.22;5109882;28;20483;-74
2022/07/02 01:07:24;;;;;;;2.53;0.70;;;;;;;12.72;76.90;101359.97;5110634;28;20046;-74
2022/07/02 01:10:28;;;;;;;2.05;0.80;;;;;;;12.73;77.42;101351.19;5110632;28;20046;-74
2022/07/02 01:13:32;;;;;;;2.95;0.85;;;;;;;12.70;77.73;101351.34;5110533;28;20092;-73
2022/07/02 01:16:35;;;;;;;6.53;1.10;;;;;;;12.61;78.14;101351.78;5110531;28;20050;-73
2022/07/02 01:19:39;;;;;;;3.17;0.90;;;;;;;12.87;75.78;101347.91;5110790;28;20050;-73
2022/07/02 01:22:44;;;;;;;2.83;0.90;;;;;;;13.09;74.78;101352.94;5110496;28;20054;-73
2022/07/02 01:25:52;;;;;;;2.10;0.88;;;;;;;12.67;76.58;101354.13;5110658;28;20567;-73
2022/07/02 01:28:56;;;;;;;2.55;0.77;;;;;;;12.59;76.97;101352.78;5101094;28;20100;-73
2022/07/02 01:32:00;;;;;;;4.13;1.20;;;;;;;12.43;78.14;101347.41;5089997;28;20104;-73
2022/07/02 01:35:10;;;;;;;2.05;0.70;;;;;;;12.59;77.99;101342.28;5090270;28;20083;-73
2022/07/02 01:38:14;;;;;;;3.40;1.17;;;;;;;12.94;76.82;101343.19;5088887;28;20097;-73
2022/07/02 01:44:39;;;;;;;7.72;1.27;;;;;;;12.92;75.73;101334.53;5110090;28;20092;-73
2022/07/02 01:47:43;;;;;;;6.60;1.10;;;;;;;12.57;77.46;101329.22;5109597;28;20534;-73
2022/07/02 01:50:46;;;;;;;2.80;0.95;;;;;;;12.50;77.99;101322.56;5109466;28;20065;-74
2022/07/02 01:53:50;;;;;;;7.60;1.83;;;;;;;12.31;79.21;101331.31;5109457;28;20074;-73
2022/07/02 01:56:53;;;;;;;2.35;0.70;;;;;;;12.69;77.95;101327.78;5110336;28;20114;-73
2022/07/02 01:59:56;;;;;;;3.70;1.00;;;;;;;12.96;76.52;101325.59;5109207;28;20608;-73
2022/07/02 02:03:01;;;;;;;3.55;1.00;;;;;;;13.09;75.92;101329.31;5109829;28;20479;-73
2022/07/02 02:06:04;;;;;;;4.75;1.73;;;;;;;12.80;77.03;101326.34;5109460;28;20540;-73
2022/07/02 02:09:08;;;;;;;4.35;1.40;;;;;;;12.56;78.24;101327.53;5109265;28;20135;-73
2022/07/02 02:12:11;;;;;;;2.60;1.00;;;;;;;12.50;78.61;101331.28;5109668;28;20172;-73
2022/07/02 02:15:15;;;;;;;7.20;1.10;;;;;;;12.46;79.17;101336.75;5110049;28;20035;-73
2022/07/02 02:18:18;;;;;;;3.58;1.20;;;;;;;12.72;78.40;101346.84;5109542;28;20100;-72
2022/07/02 02:21:26;;;;;;;5.85;1.40;;;;;;;12.51;79.01;101345.28;5108725;28;20078;-73
2022/07/02 02:24:30;;;;;;;7.43;1.38;;;;;;;12.51;79.10;101334.78;5108117;28;20050;-73
2022/07/02 02:27:33;;;;;;;3.22;1.30;;;;;;;12.62;78.41;101342.97;5108863;28;20479;-73
2022/07/02 02:30:37;;;;;;;9.00;1.70;;;;;;;12.65;78.12;101348.09;5108331;28;20096;-74
2022/07/02 02:33:41;;;;;;;5.65;1.40;;;;;;;12.60;78.48;101344.81;5109577;28;20050;-72
2022/07/02 02:36:44;;;;;;;3.35;1.58;;;;;;;12.50;79.17;101347.03;5109884;28;20363;-72
2022/07/02 02:39:51;;;;;;;5.80;1.80;;;;;;;12.39;79.69;101353.72;5108089;28;20051;-73
2022/07/02 02:42:54;;;;;;;7.32;1.63;;;;;;;12.32;80.20;101348.75;5109266;28;20041;-73
2022/07/02 02:45:59;;;;;;;3.50;1.42;;;;;;;12.33;80.08;101353.06;5108871;28;20507;-72
2022/07/02 02:49:02;;;;;;;4.55;1.45;;;;;;;12.69;78.73;101349.63;5108265;28;20135;-73
2022/07/02 02:52:06;;;;;;;3.17;1.30;;;;;;;12.96;76.98;101347.44;5108812;28;20050;-73
2022/07/02 02:55:11;;;;;;;5.40;1.52;;;;;;;12.60;78.49;101355.31;5109598;28;20108;-73
2022/07/02 02:58:14;;;;;;;4.03;1.70;;;;;;;12.91;77.67;101356.47;5109317;28;20047;-73
2022/07/02 03:01:17;;;;;;;3.53;1.77;;;;;;;12.65;78.55;101353.31;5108611;28;20035;-73
2022/07/02 03:04:20;;;;;;;;;;;;;;;12.61;78.58;101370.16;5108992;28;20089;-73
2022/07/02 03:07:24;;;;;;;3.28;1.40;;;;;;;12.30;79.97;101362.84;5108624;28;19941;-73
2022/07/02 03:10:28;;;;;;;3.67;1.23;;;;;;;12.50;79.20;101370.63;5108788;28;20508;-73
2022/07/02 03:13:32;;;;;;;4.05;1.55;;;;;;;12.64;78.20;101377.88;5109590;28;20505;-73
2022/07/02 03:16:35;;;;;;;2.55;1.40;;;;;;;12.60;78.73;101378.91;5108887;28;20161;-73
2022/07/02 03:19:38;;;;;;;2.55;1.13;;;;;;;12.38;79.54;101386.09;5107513;28;20092;-73
2022/07/02 03:22:41;;;;;;;4.15;1.73;;;;;;;12.66;78.39;101380.41;5107743;28;20508;-73
2022/07/02 03:25:45;;;;;;;3.30;1.63;;;;;;;12.79;77.40;101382.41;5108184;28;20046;-74
2022/07/02 03:28:48;;;;;;;4.43;1.20;;;;;;;12.93;76.68;101389.59;5108593;28;20508;-75
2022/07/02 03:31:52;;;;;;;4.65;1.60;;;;;;;12.89;76.72;101387.19;5108386;28;20528;-73
2022/07/02 03:34:56;;;;;;;6.32;1.70;;;;;;;12.75;77.18;101386.06;5108616;28;20138;-73
2022/07/02 03:38:01;;;;;;;3.95;1.30;;;;;;;12.41;78.87;101391.19;5108404;28;20085;-73
2022/07/02 03:41:06;;;;;;;3.08;1.23;;;;;;;12.34;79.23;101409.84;5108674;28;20101;-73
2022/07/02 03:44:09;;;;;;;2.88;1.33;;;;;;;12.62;78.30;101407.72;5107989;28;20054;-73
2022/07/02 03:47:14;;;;;;;2.47;1.77;;;;;;;12.66;78.04;101411.91;5108522;28;20564;-72
2022/07/02 03:50:17;;;;;;;3.42;1.40;;;;;;;12.44;78.79;101412.03;5107679;28;20061;-72
2022/07/02 03:53:23;;;;;;;;;;;;;;;12.36;79.14;101404.53;5108081;28;20051;-72
2022/07/02 03:56:28;;;;;;;5.82;1.75;;;;;;;12.10;80.59;101403.09;5088297;28;19930;-72
2022/07/02 03:59:33;;;;;;;2.53;1.48;;;;;;;12.00;80.76;101417.53;5087928;28;20674;-73
2022/07/02 04:02:37;;;;;;;2.65;1.38;;;;;;;12.07;80.96;101408.47;5090004;28;20128;-73
2022/07/02 04:05:42;;;;;;;3.28;1.63;;;;;;;12.00;81.64;101407.91;5098010;28;20035;-73
2022/07/02 04:08:45;;;;;;;6.13;1.55;;;;;;;12.06;80.70;101406.75;5091552;28;20047;-73
2022/07/02 04:11:49;;;;;;;2.83;1.30;;;;;;;12.34;79.49;101401.97;5091408;28;20043;-73
2022/07/02 04:14:53;;;;;;;3.67;1.52;;;;;;;12.28;79.50;101391.78;5091486;28;20470;-72
2022/07/02 04:17:56;;;;;;;5.03;1.70;;;;;;;12.21;80.10;101390.34;5093146;28;20059;-73
2022/07/02 04:21:00;;;;;;;2.17;1.20;;;;;;;12.54;78.46;101393.19;5110887;28;20047;-73
2022/07/02 04:24:03;;;;;;;2.38;1.15;;;;;;;12.68;77.64;101389.91;5102847;28;20077;-73
2022/07/02 04:27:09;;;;;;;3.92;1.33;;;;;;;12.32;78.94;101385.47;5090867;28;20039;-73
2022/07/02 04:30:13;;;;;;;2.25;1.23;;;;;;;12.04;80.69;101383.25;5090548;28;20047;-73
2022/07/02 04:33:16;;;;;;;3.95;1.20;;;;;;;12.32;79.97;101382.00;5100599;28;20042;-73
2022/07/02 04:36:21;;;;;;;3.78;1.60;;;;;;;12.22;80.48;101386.81;5111896;28;20042;-74
2022/07/02 04:39:25;;;;;;;3.38;1.70;;;;;;;12.07;80.77;101392.75;5110590;28;20124;-73
2022/07/02 04:42:29;;;;;;;5.05;1.77;;;;;;;12.12;80.85;101382.88;5111336;28;20038;-73
2022/07/02 04:45:33;;;;;;;4.32;1.63;;;;;;;12.33;79.87;101386.31;5110558;28;20704;-72
2022/07/02 04:48:41;;;;;;;4.22;1.20;;;;;;;12.31;79.64;101389.00;5110557;28;20512;-73
2022/07/02 04:51:47;;;;;;;3.05;1.52;;;;;;;12.39;79.28;101395.69;5110578;28;20042;-74
2022/07/02 04:54:51;;;;;;;2.85;1.40;;;;;;;12.39;79.61;101393.06;5111031;28;20131;-73
2022/07/02 04:57:54;;;;;;;2.10;1.30;;;;;;;12.41;79.57;101392.06;5110522;28;20084;-73
2022/07/02 05:00:58;;;;;;;2.40;1.25;;;;;;;12.44;79.28;101396.31;5110874;28;20050;-73
2022/07/02 05:04:02;;;;;;;2.00;0.95;;;;;;;12.12;80.43;101393.38;5110334;28;20127;-72
2022/07/02 05:07:05;;;;;;;2.67;1.00;;;;;;;12.62;78.57;101398.06;5092166;28;20120;-73
2022/07/02 05:10:08;;;;;;;2.10;1.00;;;;;;;12.67;77.44;101392.63;5087640;28;20043;-72
2022/07/02 05:13:12;;;;;;;2.95;1.20;;;;;;;12.19;80.10;101394.81;5088445;28;20092;-72
2022/07/02 05:16:16;;;;;;;2.63;1.25;;;;;;;12.52;78.52;101391.56;5093831;28;20040;-73
2022/07/02 05:19:19;;;;;;;2.50;0.95;;;;;;;12.63;78.43;101389.28;5089117;28;20047;-76
2022/07/02 05:22:23;;;;;;;1.85;1.02;;;;;;;12.71;78.04;101389.78;5088755;28;20306;-76
2022/07/02 05:25:27;;;;;;;2.00;1.10;;;;;;;12.98;77.13;101403.34;5088179;28;20055;-75
2022/07/02 05:28:30;;;;;;;2.47;1.10;;;;;;;12.73;77.76;101398.44;5088009;28;20027;-75
2022/07/02 05:31:33;;;;;;;2.00;1.05;;;;;;;12.77;77.61;101407.84;5106688;28;20113;-76
2022/07/02 05:34:36;;;;;;;2.70;1.15;;;;;;;12.52;78.97;101404.69;4735265;28;10001134;-77
2022/07/02 05:37:45;;;;;;;2.28;1.08;;;;;;;12.65;78.88;101407.59;5087961;28;20106;-77
2022/07/02 05:40:50;;;;;;;2.90;1.00;;;;;;;12.75;78.29;101409.69;5088746;28;20173;-77
2022/07/02 05:43:53;;;;;;;2.67;0.98;;;;;;;12.71;78.96;101410.78;5095824;28;20543;-77
2022/07/02 05:46:57;;;;;;;2.13;1.00;;;;;;;12.87;78.09;101405.66;5108193;28;20058;-77
2022/07/02 05:50:02;;;;;;;1.85;0.80;;;;;;;12.80;77.97;101406.88;5095695;28;20047;-75
2022/07/02 05:53:06;;;;;;;2.55;0.98;;;;;;;12.96;77.88;101409.63;5087599;28;20135;-75
2022/07/02 05:56:10;;;;;;;1.88;0.63;;;;;;;13.01;77.90;101408.44;5088004;28;20101;-76
2022/07/02 05:59:14;;;;;;;2.05;0.90;;;;;;;13.04;78.29;101412.69;5102106;28;20680;-76
2022/07/02 06:02:17;;;;;;;2.17;0.77;;;;;;;13.06;78.36;101410.88;5109641;28;20054;-76
2022/07/02 06:08:43;;;;;;;4.10;1.33;;;;;;;13.58;76.30;101418.81;5108599;28;20452;-76
2022/07/02 06:11:48;;;;;;;4.82;1.10;;;;;;;13.68;76.42;101414.78;5109043;28;20565;-75
2022/07/02 06:14:51;;;;;;;3.63;0.80;;;;;;;13.76;76.62;101405.69;5089505;28;20055;-75
2022/07/02 06:17:58;;;;;;;2.20;1.10;;;;;;;13.99;75.92;101407.94;5088761;28;20097;-74
2022/07/02 06:21:03;;;;;;;1.65;0.60;;;;;;;13.91;77.01;101405.72;5087896;28;20036;-76
2022/07/02 06:24:10;;;;;;;2.67;0.85;;;;;;;14.07;76.89;101408.41;5086417;28;20512;-73
2022/07/02 06:27:19;;;;;;;2.83;0.80;;;;;;;14.19;76.80;101399.00;5093811;28;20580;-75
2022/07/02 06:30:27;;;;;;;1.70;0.70;;;;;;;14.37;75.70;101403.28;5106243;28;20050;-72
2022/07/02 06:33:31;;;;;;;3.70;0.80;;;;;;;14.46;75.31;101399.31;5106972;28;20532;-73
2022/07/02 06:36:34;;;;;;;3.40;0.88;;;;;;;14.68;74.69;101398.13;5088418;28;20047;-72
2022/07/02 06:39:37;;;;;;;2.42;0.77;;;;;;;14.71;75.04;101390.06;5087536;28;20097;-68
2022/07/02 06:42:41;;;;;;;3.22;1.02;;;;;;;14.61;74.81;101385.34;5090403;28;20051;-67
2022/07/02 06:45:45;;;;;;;5.35;0.88;;;;;;;14.76;74.22;101391.50;5087972;28;20437;-68
2022/07/02 06:48:48;;;;;;;3.58;0.80;;;;;;;14.89;73.98;101392.50;5087757;28;20040;-68
2022/07/02 06:51:51;;;;;;;4.07;0.73;;;;;;;15.00;73.88;101386.66;5088233;28;20047;-70
2022/07/02 06:54:55;;;;;;;2.88;0.77;;;;;;;15.16;73.92;101393.69;5087530;28;20090;-69
2022/07/02 06:57:58;;;;;;;1.88;0.60;;;;;;;15.26;73.15;101386.94;5087884;28;20039;-69
2022/07/02 07:01:01;;;;;;;2.15;0.80;;;;;;;15.40;72.16;101386.13;5088156;28;20043;-69
2022/07/02 07:04:05;;;;;;;5.82;1.40;;;;;;;15.44;72.70;101383.22;5087449;28;20195;-68
2022/07/02 07:07:10;;;;;;;2.83;0.77;;;;;;;15.54;72.46;101387.03;5087069;28;20066;-68
2022/07/02 07:10:14;;;;;;;4.97;0.52;;;;;;;15.59;73.21;101376.19;5092623;28;20046;-69
2022/07/02 07:13:18;;;;;;;2.63;0.90;;;;;;;15.72;73.18;101371.06;5106541;28;20096;-68
2022/07/02 07:16:22;;;;;;;3.78;0.90;;;;;;;15.85;73.64;101377.28;5107712;28;20055;-71
2022/07/02 07:19:26;;;;;;;2.45;0.65;;;;;;;15.93;72.20;101376.84;5107964;28;20038;-68
2022/07/02 07:22:29;;;;;;;2.35;0.77;;;;;;;16.03;72.30;101368.25;5108062;28;20046;-68
2022/07/02 07:25:33;;;;;;;2.45;0.70;;;;;;;16.10;71.85;101363.44;5106700;28;20059;-68
2022/07/02 07:28:36;;;;;;;3.88;0.80;;;;;;;16.14;71.67;101364.94;5107240;28;20134;-69
2022/07/02 07:31:41;;;;;;;2.80;0.63;;;;;;;16.25;71.62;101362.50;5107190;28;20105;-69
2022/07/02 07:34:44;;;;;;;3.47;0.73;;;;;;;16.37;71.21;101355.59;5107356;28;20070;-69
2022/07/02 07:37:59;;;;;;;4.47;0.90;;;;;;;16.46;70.84;101354.13;5110595;28;20046;-68
2022/07/02 07:41:02;;;;;;;2.88;0.70;;;;;;;16.57;70.02;101356.13;5111272;28;20533;-67
2022/07/02 07:44:06;;;;;;;2.60;0.88;;;;;;;16.61;69.32;101361.09;5112397;28;20074;-66
2022/07/02 07:47:10;;;;;;;3.25;0.70;;;;;;;16.79;69.04;101356.47;5111575;28;20050;-66
2022/07/02 07:50:14;;;;;;;1.17;0.50;;;;;;;16.91;68.64;101357.44;5111941;28;20645;-66
2022/07/02 07:53:18;;;;;;;3.90;0.68;;;;;;;17.00;67.45;101355.97;5109249;28;20073;-66
2022/07/02 07:56:21;;;;;;;8.23;0.95;;;;;;;17.06;66.94;101347.66;5110366;28;20092;-66
2022/07/02 07:59:25;;;;;;;3.83;1.40;;;;;;;17.24;66.61;101351.72;5110549;28;20065;-66
2022/07/02 08:02:29;;;;;;;2.65;0.90;;;;;;;17.36;66.19;101342.13;5111649;28;20054;-67
2022/07/02 08:05:36;;;;;;;4.22;0.65;;;;;;;17.48;65.85;101340.41;5111695;28;20065;-67
2022/07/02 08:08:40;;;;;;;2.67;0.82;;;;;;;17.75;66.01;101335.88;5109388;28;20097;-67
2022/07/02 08:11:44;;;;;;;2.42;0.70;;;;;;;17.84;65.54;101326.50;5108832;28;20070;-68
2022/07/02 08:14:48;;;;;;;4.60;0.98;;;;;;;17.88;64.45;101322.69;5106864;28;20531;-67
2022/07/02 08:17:51;;;;;;;2.70;0.70;;;;;;;18.01;63.78;101325.31;5106959;28;20132;-67
2022/07/02 08:20:55;;;;;;;2.65;0.80;;;;;;;18.08;63.41;101322.09;5107377;28;20035;-68
2022/07/02 08:23:59;;;;;;;3.00;0.47;;;;;;;18.20;63.71;101309.81;5108408;28;20112;-68
2022/07/02 08:27:03;;;;;;;3.53;0.70;;;;;;;18.34;62.64;101314.09;5109708;28;20112;-68
2022/07/02 08:30:08;;;;;;;3.83;0.98;;;;;;;18.45;62.35;101313.34;5109091;28;20156;-69
2022/07/02 08:33:12;;;;;;;2.78;0.60;;;;;;;18.45;61.15;101310.69;5110416;28;20429;-68
2022/07/02 08:36:15;;;;;;;2.25;0.80;;;;;;;18.53;61.73;101309.16;5109862;28;20108;-68
2022/07/02 08:39:19;;;;;;;3.08;0.70;;;;;;;18.84;60.68;101311.38;5110372;28;20039;-68
2022/07/02 08:42:28;;;;;;;9.82;0.90;;;;;;;18.97;60.24;101312.16;5110225;28;20634;-68
2022/07/02 08:45:32;;;;;;;2.97;0.60;;;;;;;19.03;59.62;101309.88;5110365;28;20096;-69
2022/07/02 08:48:37;;;;;;;2.15;0.52;;;;;;;19.21;59.56;101307.66;5110439;28;20499;-68
2022/07/02 08:51:42;;;;;;;5.85;0.80;;;;;;;19.42;57.97;101299.00;5110042;28;20092;-68
2022/07/02 08:54:46;;;;;;;2.78;0.60;;;;;;;19.45;57.53;101289.00;5110846;28;20101;-68
2022/07/02 08:57:52;;;;;;;5.53;1.33;;;;;;;19.65;56.38;101278.66;5109635;28;20046;-68
2022/07/02 09:00:57;;;;;;;3.72;0.75;;;;;;;19.75;56.89;101277.00;5109189;28;20042;-69
2022/07/02 09:04:02;;;;;;;5.18;0.95;;;;;;;19.99;54.03;101266.22;5107085;28;20081;-69
2022/07/02 09:07:07;;;;;;;2.85;0.80;;;;;;;20.11;56.20;101264.41;5108252;28;20118;-69
2022/07/02 09:10:17;;;;;;;2.50;0.60;;;;;;;20.33;53.03;101263.50;5102362;28;20100;-68
2022/07/02 09:13:22;;;;;;;2.35;0.93;;;;;;;20.42;53.88;101258.28;5108708;28;20042;-66
2022/07/02 09:16:25;;;;;;;4.65;0.70;;;;;;;20.53;52.05;101260.06;5107228;28;20139;-67
2022/07/02 09:19:29;;;;;;;8.93;1.08;;;;;;;20.62;50.66;101253.16;5107652;28;20115;-67
2022/07/02 09:22:34;;;;;;;4.57;0.82;;;;;;;20.61;51.98;101260.28;5108117;28;20121;-68
2022/07/02 09:25:40;;;;;;;1.33;0.47;;;;;;;20.74;52.98;101253.94;5108389;28;20038;-68
2022/07/02 09:29:00;;;;;;;2.22;0.65;;;;;;;20.85;51.71;101256.56;5105219;28;20055;-67
2022/07/02 09:32:03;;;;;;;2.90;0.80;;;;;;;20.79;49.26;101249.94;5107121;28;20042;-68
2022/07/02 09:35:15;;;;;;;5.25;0.88;;;;;;;20.67;48.42;101246.47;5105738;28;20037;-68
2022/07/02 09:38:18;;;;;;;3.03;0.80;;;;;;;20.84;49.52;101242.41;5108720;28;20487;-67
2022/07/02 09:41:23;;;;;;;4.05;0.45;;;;;;;21.10;45.99;101234.88;5109593;28;20082;-68
2022/07/02 09:44:27;;;;;;;2.15;0.50;;;;;;;20.84;46.54;101230.94;5109284;28;20125;-68
2022/07/02 09:47:48;;;;;;;4.57;0.73;;;;;;;21.11;47.42;101228.59;5106990;28;20061;-68
2022/07/02 09:50:52;;;;;;;3.13;0.68;;;;;;;21.27;46.02;101229.94;5107916;28;20051;-68
2022/07/02 09:53:56;;;;;;;4.20;0.40;;;;;;;21.32;46.17;101225.06;5107862;28;20101;-67
2022/07/02 09:56:59;;;;;;;3.42;0.57;;;;;;;21.33;45.02;101216.09;5108159;28;20084;-68
2022/07/02 10:00:06;;;;;;;6.57;0.50;;;;;;;21.83;43.17;101224.16;5107398;28;20066;-67
2022/07/02 10:03:10;;;;;;;0.82;0.25;;;;;;;21.61;41.87;101227.03;5106680;28;20123;-70
2022/07/02 10:06:14;;;;;;;4.55;0.63;;;;;;;21.23;42.04;101212.56;5107565;28;20126;-68
2022/07/02 10:09:19;;;;;;;2.50;0.50;;;;;;;21.28;43.04;101215.66;5108317;28;20783;-69
2022/07/02 10:12:22;;;;;;;3.50;0.60;;;;;;;21.43;42.46;101206.38;5106283;28;20042;-68
2022/07/02 10:15:31;;;;;;;1.95;0.45;;;;;;;21.30;41.39;101205.72;5105297;28;20043;-69
2022/07/02 10:18:36;;;;;;;2.13;0.30;;;;;;;21.12;42.23;101206.34;5107306;28;20043;-68
2022/07/02 10:21:39;;;;;;;1.45;0.50;;;;;;;21.02;44.23;101184.16;5108089;28;20066;-66
2022/07/02 10:24:44;;;;;;;8.68;0.68;;;;;;;21.02;43.76;101181.50;5105909;28;20645;-65
2022/07/02 10:27:48;;;;;;;2.75;0.40;;;;;;;21.14;43.10;101183.13;5106965;28;20092;-65
2022/07/02 10:30:56;;;;;;;4.28;0.40;;;;;;;21.08;43.61;101185.47;5106707;28;20488;-66
2022/07/02 10:34:37;;;;;;;1.50;0.30;;;;;;;21.34;38.80;101172.56;5108553;28;20050;-65
2022/07/02 10:37:42;;;;;;;3.45;0.40;;;;;;;21.30;43.18;101179.13;5108732;28;20092;-65
2022/07/02 10:40:50;;;;;;;3.70;1.30;;;;;;;21.66;42.90;101183.06;5106798;28;20111;-65
2022/07/02 10:43:59;;;;;;;3.47;0.50;;;;;;;21.53;38.67;101177.97;5107574;28;20053;-65
2022/07/02 10:47:03;;;;;;;7.07;0.93;;;;;;;21.67;39.45;101165.28;5108826;28;20085;-65
2022/07/02 10:50:10;;;;;;;3.60;0.40;;;;;;;21.98;36.71;101169.53;5107268;28;20559;-65
2022/07/02 10:53:21;;;;;;;3.45;0.40;;;;;;;21.81;35.90;101156.91;5104536;28;20077;-65
2022/07/02 10:56:25;;;;;;;3.40;0.30;;;;;;;21.87;39.48;101166.16;5106302;28;20717;-71
2022/07/02 10:59:38;;;;;;;3.90;0.50;;;;;;;22.32;39.18;101147.00;5106561;28;20081;-76
2022/07/02 11:02:41;;;;;;;;;;;;;;;22.32;38.80;101145.19;5106476;28;20096;-71
2022/07/02 11:06:21;;;;;;;4.00;0.60;;;;;;;22.45;38.86;101140.41;5104904;28;19918;-75
2022/07/02 11:09:24;;;;;;;6.43;0.57;;;;;;;22.20;38.62;101143.63;5105435;28;20498;-74
2022/07/02 11:12:50;;;;;;;9.02;2.25;;;;;;;22.43;35.56;101139.72;5113912;28;20560;-73
2022/07/02 11:15:54;;;;;;;2.08;0.40;;;;;;;22.39;35.88;101142.78;5112591;28;20173;-73
2022/07/02 11:19:01;;;;;;;2.83;0.32;;;;;;;22.32;37.24;101131.84;5112689;28;20069;-73
2022/07/02 11:22:04;;;;;;;4.28;0.93;;;;;;;22.10;36.55;101124.13;5113799;28;20073;-71
2022/07/02 11:25:08;;;;;;;3.20;0.60;;;;;;;22.23;36.00;101119.38;5112723;28;20057;-73
2022/07/02 11:28:12;;;;;;;4.60;0.50;;;;;;;22.20;36.65;101123.16;5113547;28;20058;-73
2022/07/02 11:31:18;;;;;;;2.78;0.40;;;;;;;22.47;35.37;101122.44;5109223;28;20523;-72
2022/07/02 11:34:29;;;;;;;4.45;0.77;;;;;;;22.33;36.49;101125.53;5114146;28;20042;-71
2022/07/02 11:37:33;;;;;;;1.52;0.30;;;;;;;22.54;37.20;101127.22;5114686;28;20047;-70
2022/07/02 11:40:39;;;;;;;2.10;0.70;;;;;;;22.68;35.09;101113.41;5113600;28;20050;-71
2022/07/02 11:43:44;;;;;;;2.28;0.45;;;;;;;22.87;35.26;101112.53;5115214;28;20039;-71
2022/07/02 11:46:55;;;;;;;4.88;0.70;;;;;;;22.95;37.19;101110.00;5114555;28;20178;-72
2022/07/02 11:49:59;;;;;;;2.33;0.47;;;;;;;22.88;37.46;101112.38;5109977;28;20034;-72
2022/07/02 11:53:06;;;;;;;2.92;0.60;;;;;;;22.82;37.49;101110.31;5113244;28;20037;-72
2022/07/02 11:56:15;;;;;;;3.95;0.50;;;;;;;22.91;37.78;101098.75;5110540;28;20084;-72
2022/07/02 11:59:21;;;;;;;2.85;0.50;;;;;;;23.05;37.07;101088.63;5102897;28;20128;-73
2022/07/02 12:02:36;;;;;;;5.45;0.88;;;;;;;23.15;35.68;101089.41;5106645;28;20042;-73
2022/07/02 12:05:50;;;;;;;2.25;0.65;;;;;;;23.16;35.33;101081.25;5112099;28;20113;-73
2022/07/02 12:08:55;;;;;;;4.88;0.55;;;;;;;23.20;36.07;101090.66;5113915;28;20063;-72
2022/07/02 12:11:59;;;;;;;4.55;1.95;;;;;;;23.43;36.88;101091.09;5114456;28;20084;-72
2022/07/02 12:15:03;;;;;;;6.35;0.90;;;;;;;23.53;36.00;101082.19;5114389;28;20092;-71
2022/07/02 12:18:16;;;;;;;2.65;0.50;;;;;;;23.47;36.45;101072.09;5113845;28;20135;-74
2022/07/02 12:21:20;;;;;;;2.28;0.70;;;;;;;23.57;36.32;101065.69;5113189;28;20070;-73
2022/07/02 12:24:29;;;;;;;12.50;4.72;;;;;;;23.91;36.42;101062.38;5106305;28;20567;-71
2022/07/02 12:27:36;;;;;;;7.70;2.33;;;;;;;23.94;35.93;101075.44;5108825;28;20089;-72
2022/07/02 12:30:52;;;;;;;4.38;1.52;;;;;;;23.84;35.20;101058.66;5106662;28;20063;-74
2022/07/02 12:33:55;;;;;;;6.47;1.50;;;;;;;24.11;37.39;101061.19;5108815;28;20046;-73
2022/07/02 12:37:00;;;;;;;3.95;0.82;;;;;;;24.20;34.43;101047.91;5108805;28;20046;-73
2022/07/02 12:40:16;;;;;;;2.90;0.70;;;;;;;24.33;35.49;101043.81;5105617;28;20042;-72
2022/07/02 12:43:23;;;;;;;2.17;0.52;;;;;;;24.42;33.82;101041.25;5108849;28;20472;-72
2022/07/02 12:46:28;;;;;;;5.20;1.23;;;;;;;24.48;34.51;101044.13;5109426;28;20042;-71
2022/07/02 12:49:31;;;;;;;2.40;1.20;;;;;;;24.53;33.09;101038.28;5107427;28;20096;-72
2022/07/02 12:52:49;;;;;;;1.92;0.50;;;;;;;24.92;32.80;101033.31;5108594;28;20042;-74
2022/07/02 12:56:01;;;;;;;3.53;0.68;;;;;;;25.02;31.87;101017.97;5110920;28;20081;-73
2022/07/02 12:59:05;;;;;;;1.95;0.55;;;;;;;25.13;33.15;101024.03;5110049;28;20131;-74
2022/07/02 13:02:14;;;;;;;5.28;0.70;;;;;;;25.42;33.47;101010.22;5108606;28;20507;-73
2022/07/02 13:05:17;;;;;;;1.40;0.50;;;;;;;25.46;31.40;101019.56;5109874;28;20514;-74
2022/07/02 13:08:24;;;;;;;3.97;0.50;;;;;;;25.65;30.77;101015.75;5109477;28;20526;-75
2022/07/02 13:11:28;;;;;;;3.58;0.57;;;;;;;25.48;30.09;101006.88;5105250;28;20089;-74
2022/07/02 13:14:32;;;;;;;4.03;0.55;;;;;;;26.04;32.24;101002.56;5108268;28;20089;-74
2022/07/02 13:17:35;;;;;;;2.78;0.40;;;;;;;26.29;31.76;100999.81;5069184;28;20047;-73
2022/07/02 13:20:43;;;;;;;3.63;0.60;;;;;;;26.47;30.35;100995.06;5069250;28;20051;-74
2022/07/02 13:23:47;;;;;;;3.33;0.50;;;;;;;26.66;30.55;101000.06;5068220;28;20710;-73
2022/07/02 13:26:50;;;;;;;2.22;0.57;;;;;;;26.94;30.59;100994.25;5066820;28;20653;-73
2022/07/02 13:29:55;;;;;;;2.65;0.47;;;;;;;26.77;29.33;100995.31;5068871;28;20094;-73
2022/07/02 13:33:01;;;;;;;5.80;1.05;;;;;;;26.99;30.14;100997.22;5065058;28;20580;-73
2022/07/02 13:36:06;;;;;;;3.90;0.60;;;;;;;26.74;29.42;100982.25;5064667;28;20185;-72
2022/07/02 13:39:11;;;;;;;9.35;0.80;;;;;;;26.92;29.42;100977.47;5067719;28;20043;-72
2022/07/02 13:42:15;;;;;;;1.63;0.40;;;;;;;26.86;28.17;100981.69;5068188;28;20047;-73
2022/07/02 13:45:19;;;;;;;2.35;0.57;;;;;;;26.87;28.42;100969.97;5069144;28;20048;-72
2022/07/02 13:48:23;;;;;;;2.67;1.08;;;;;;;27.75;28.37;100966.00;5065687;28;20135;-73
2022/07/02 13:51:29;;;;;;;3.67;0.85;;;;;;;27.73;28.01;100956.47;5065921;28;20071;-72
2022/07/02 13:54:32;;;;;;;2.67;0.85;;;;;;;27.81;27.25;100961.78;5066260;28;20123;-73
2022/07/02 13:57:35;;;;;;;2.33;0.50;;;;;;;28.25;25.86;100958.31;5068066;28;20043;-74
2022/07/02 14:00:39;;;;;;;1.33;0.40;;;;;;;28.47;25.59;100946.63;5068881;28;20525;-72
2022/07/02 14:03:42;;;;;;;2.10;0.90;;;;;;;29.12;25.53;100942.22;5068700;28;20070;-75
2022/07/02 14:06:45;;;;;;;1.77;0.43;;;;;;;29.54;25.93;100935.16;5064478;28;20090;-73
2022/07/02 14:09:49;;;;;;;2.13;0.57;;;;;;;29.74;24.96;100935.34;5068443;28;20047;-72
2022/07/02 14:12:52;;;;;;;6.13;0.80;;;;;;;30.39;23.02;100927.88;5064044;28;20043;-73
2022/07/02 14:15:57;;;;;;;5.57;0.73;;;;;;;31.81;23.63;100931.50;5074678;28;20133;-73
2022/07/02 14:19:03;;;;;;;2.55;0.45;;;;;;;31.62;22.28;100920.50;5105533;28;20054;-73
2022/07/02 14:22:06;;;;;;;4.03;0.75;;;;;;;33.31;20.75;100914.03;5107859;28;20069;-73
2022/07/02 14:26:01;;;;;;;2.33;0.63;;;;;;;33.62;19.66;100938.59;5109254;28;20409;-75
2022/07/02 14:29:05;;;;;;;2.63;0.70;;;;;;;34.79;19.23;100916.84;5107042;28;20050;-71
2022/07/02 14:32:10;;;;;;;2.42;0.60;;;;;;;35.79;18.54;100914.19;5107034;28;20047;-72